sensor_id;sensor_type;location;lat;lon;timestamp;temperature;humidity
15241;DHT22;7723;52.170;9.978;2022-08-19T00:01:20;19.90;99.90
15241;DHT22;7723;52.170;9.978;2022-08-19T00:03:47;19.90;99.90
15241;DHT22;7723;52.170;9.978;2022-08-19T00:06:16;19.90;99.90
15241;DHT22;7723;52.170;9.978;2022-08-19T00:08:43;19.90;99.90
15241;DHT22;7723;52.170;9.978;2022-08-19T00:11:11;19.80;99.90
15241;DHT22;7723;52.170;9.978;2022-08-19T00:13:38;19.80;99.90
15241;DHT22;7723;52.170;9.978;2022-08-19T00:16:09;19.80;99.90
15241;DHT22;7723;52.170;9.978;2022-08-19T00:18:36;19.80;99.90
15241;DHT22;7723;52.170;9.978;2022-08-19T00:21:04;19.80;99.90
15241;DHT22;7723;52.170;9.978;2022-08-19T00:23:36;19.70;99.90
15241;DHT22;7723;52.170;9.978;2022-08-19T00:26:04;19.70;99.90
15241;DHT22;7723;52.170;9.978;2022-08-19T00:28:32;19.70;99.90
15241;DHT22;7723;52.170;9.978;2022-08-19T00:31:02;19.60;99.90
15241;DHT22;7723;52.170;9.978;2022-08-19T00:33:30;19.50;99.90
15241;DHT22;7723;52.170;9.978;2022-08-19T00:35:58;19.40;99.90
15241;DHT22;7723;52.170;9.978;2022-08-19T00:38:25;19.40;99.90
15241;DHT22;7723;52.170;9.978;2022-08-19T00:40:55;19.40;99.90
15241;DHT22;7723;52.170;9.978;2022-08-19T00:43:25;19.40;99.90
15241;DHT22;7723;52.170;9.978;2022-08-19T00:45:52;19.30;99.90
15241;DHT22;7723;52.170;9.978;2022-08-19T00:48:20;19.30;99.90
15241;DHT22;7723;52.170;9.978;2022-08-19T00:50:50;19.40;99.90
15241;DHT22;7723;52.170;9.978;2022-08-19T00:53:23;19.40;99.90
15241;DHT22;7723;52.170;9.978;2022-08-19T00:55:55;19.30;99.90
15241;DHT22;7723;52.170;9.978;2022-08-19T00:58:26;19.30;99.90
15241;DHT22;7723;52.170;9.978;2022-08-19T01:00:55;19.30;99.90
15241;DHT22;7723;52.170;9.978;2022-08-19T01:03:22;19.30;99.90
15241;DHT22;7723;52.170;9.978;2022-08-19T01:05:50;19.20;99.90
15241;DHT22;7723;52.170;9.978;2022-08-19T01:08:19;19.20;99.90
15241;DHT22;7723;52.170;9.978;2022-08-19T01:10:48;19.20;99.90
15241;DHT22;7723;52.170;9.978;2022-08-19T01:13:20;19.10;99.90
15241;DHT22;7723;52.170;9.978;2022-08-19T01:15:51;19.00;99.90
15241;DHT22;7723;52.170;9.978;2022-08-19T01:18:19;19.00;99.90
15241;DHT22;7723;52.170;9.978;2022-08-19T01:20:47;18.90;99.90
15241;DHT22;7723;52.170;9.978;2022-08-19T01:23:16;19.00;99.90
15241;DHT22;7723;52.170;9.978;2022-08-19T01:25:45;19.00;99.90
15241;DHT22;7723;52.170;9.978;2022-08-19T01:28:17;19.00;99.90
15241;DHT22;7723;52.170;9.978;2022-08-19T01:30:45;19.00;99.90
15241;DHT22;7723;52.170;9.978;2022-08-19T01:33:13;19.00;99.90
15241;DHT22;7723;52.170;9.978;2022-08-19T01:35:41;18.90;99.90
15241;DHT22;7723;52.170;9.978;2022-08-19T01:38:10;18.90;99.90
15241;DHT22;7723;52.170;9.978;2022-08-19T01:40:47;18.90;99.90
15241;DHT22;7723;52.170;9.978;2022-08-19T01:43:14;18.90;99.90
15241;DHT22;7723;52.170;9.978;2022-08-19T01:45:42;18.80;99.90
15241;DHT22;7723;52.170;9.978;2022-08-19T01:48:09;18.80;99.90
15241;DHT22;7723;52.170;9.978;2022-08-19T01:50:37;18.70;99.90
15241;DHT22;7723;52.170;9.978;2022-08-19T01:53:06;18.80;99.90
15241;DHT22;7723;52.170;9.978;2022-08-19T01:55:37;18.80;99.90
15241;DHT22;7723;52.170;9.978;2022-08-19T01:58:06;18.80;99.90
15241;DHT22;7723;52.170;9.978;2022-08-19T02:00:34;18.80;99.90
15241;DHT22;7723;52.170;9.978;2022-08-19T02:03:01;18.70;99.90
15241;DHT22;7723;52.170;9.978;2022-08-19T02:05:28;18.80;99.90
15241;DHT22;7723;52.170;9.978;2022-08-19T02:07:55;18.70;99.90
15241;DHT22;7723;52.170;9.978;2022-08-19T02:10:23;18.70;99.90
15241;DHT22;7723;52.170;9.978;2022-08-19T02:12:50;18.70;99.90
15241;DHT22;7723;52.170;9.978;2022-08-19T02:15:20;18.60;99.90
15241;DHT22;7723;52.170;9.978;2022-08-19T02:17:48;18.60;99.90
15241;DHT22;7723;52.170;9.978;2022-08-19T02:20:15;18.50;99.90
15241;DHT22;7723;52.170;9.978;2022-08-19T02:22:43;18.60;99.90
15241;DHT22;7723;52.170;9.978;2022-08-19T02:25:12;18.60;99.90
15241;DHT22;7723;52.170;9.978;2022-08-19T02:27:40;18.50;99.90
15241;DHT22;7723;52.170;9.978;2022-08-19T02:30:11;18.40;99.90
15241;DHT22;7723;52.170;9.978;2022-08-19T02:32:39;18.40;99.90
15241;DHT22;7723;52.170;9.978;2022-08-19T02:35:08;18.30;99.90
15241;DHT22;7723;52.170;9.978;2022-08-19T02:37:35;18.40;99.90
15241;DHT22;7723;52.170;9.978;2022-08-19T02:40:25;18.30;99.90
15241;DHT22;7723;52.170;9.978;2022-08-19T02:42:52;18.50;99.90
15241;DHT22;7723;52.170;9.978;2022-08-19T02:45:19;18.50;99.90
15241;DHT22;7723;52.170;9.978;2022-08-19T02:47:48;18.30;99.90
15241;DHT22;7723;52.170;9.978;2022-08-19T02:50:15;18.30;99.90
15241;DHT22;7723;52.170;9.978;2022-08-19T02:52:42;18.40;99.90
15241;DHT22;7723;52.170;9.978;2022-08-19T02:55:09;18.50;99.90
15241;DHT22;7723;52.170;9.978;2022-08-19T02:57:36;18.50;99.90
15241;DHT22;7723;52.170;9.978;2022-08-19T03:00:05;18.40;99.90
15241;DHT22;7723;52.170;9.978;2022-08-19T03:02:33;18.40;99.90
15241;DHT22;7723;52.170;9.978;2022-08-19T03:05:02;18.40;99.90
15241;DHT22;7723;52.170;9.978;2022-08-19T03:07:29;18.50;99.90
15241;DHT22;7723;52.170;9.978;2022-08-19T03:09:57;18.40;99.90
15241;DHT22;7723;52.170;9.978;2022-08-19T03:12:24;18.30;99.90
15241;DHT22;7723;52.170;9.978;2022-08-19T03:14:52;18.40;99.90
15241;DHT22;7723;52.170;9.978;2022-08-19T03:17:20;18.40;99.90
15241;DHT22;7723;52.170;9.978;2022-08-19T03:19:47;18.30;99.90
15241;DHT22;7723;52.170;9.978;2022-08-19T03:22:15;18.50;99.90
15241;DHT22;7723;52.170;9.978;2022-08-19T03:24:42;18.40;99.90
15241;DHT22;7723;52.170;9.978;2022-08-19T03:27:10;18.40;99.90
15241;DHT22;7723;52.170;9.978;2022-08-19T03:29:38;18.40;99.90
15241;DHT22;7723;52.170;9.978;2022-08-19T03:32:08;18.40;99.90
15241;DHT22;7723;52.170;9.978;2022-08-19T03:34:37;18.40;99.90
15241;DHT22;7723;52.170;9.978;2022-08-19T03:37:06;18.30;99.90
15241;DHT22;7723;52.170;9.978;2022-08-19T03:39:36;18.30;99.90
15241;DHT22;7723;52.170;9.978;2022-08-19T03:42:04;18.30;99.90
15241;DHT22;7723;52.170;9.978;2022-08-19T03:44:32;18.40;99.90
15241;DHT22;7723;52.170;9.978;2022-08-19T03:47:00;18.30;99.90
15241;DHT22;7723;52.170;9.978;2022-08-19T03:49:29;18.30;99.90
15241;DHT22;7723;52.170;9.978;2022-08-19T03:51:58;18.30;99.90
15241;DHT22;7723;52.170;9.978;2022-08-19T03:54:26;18.30;99.90
15241;DHT22;7723;52.170;9.978;2022-08-19T03:56:56;18.30;99.90
15241;DHT22;7723;52.170;9.978;2022-08-19T03:59:26;18.30;99.90
15241;DHT22;7723;52.170;9.978;2022-08-19T04:01:54;18.30;99.90
15241;DHT22;7723;52.170;9.978;2022-08-19T04:04:21;18.20;99.90
15241;DHT22;7723;52.170;9.978;2022-08-19T04:06:49;18.30;99.90
15241;DHT22;7723;52.170;9.978;2022-08-19T04:09:17;18.20;99.90
15241;DHT22;7723;52.170;9.978;2022-08-19T04:11:47;18.20;99.90
15241;DHT22;7723;52.170;9.978;2022-08-19T04:14:19;18.20;99.90
15241;DHT22;7723;52.170;9.978;2022-08-19T04:16:48;18.20;99.90
15241;DHT22;7723;52.170;9.978;2022-08-19T04:19:17;18.20;99.90
15241;DHT22;7723;52.170;9.978;2022-08-19T04:21:46;18.20;99.90
15241;DHT22;7723;52.170;9.978;2022-08-19T04:24:14;18.10;99.90
15241;DHT22;7723;52.170;9.978;2022-08-19T04:26:42;18.10;99.90
15241;DHT22;7723;52.170;9.978;2022-08-19T04:29:15;18.10;99.90
15241;DHT22;7723;52.170;9.978;2022-08-19T04:31:45;18.20;99.90
15241;DHT22;7723;52.170;9.978;2022-08-19T04:34:15;18.30;99.90
15241;DHT22;7723;52.170;9.978;2022-08-19T04:36:43;18.20;99.90
15241;DHT22;7723;52.170;9.978;2022-08-19T04:39:13;18.20;99.90
15241;DHT22;7723;52.170;9.978;2022-08-19T04:41:40;18.30;99.90
15241;DHT22;7723;52.170;9.978;2022-08-19T04:44:24;18.20;99.90
15241;DHT22;7723;52.170;9.978;2022-08-19T04:46:53;18.20;99.90
15241;DHT22;7723;52.170;9.978;2022-08-19T04:49:23;18.30;99.90
15241;DHT22;7723;52.170;9.978;2022-08-19T04:51:51;18.30;99.90
15241;DHT22;7723;52.170;9.978;2022-08-19T04:54:22;18.20;99.90
15241;DHT22;7723;52.170;9.978;2022-08-19T04:56:51;18.20;99.90
15241;DHT22;7723;52.170;9.978;2022-08-19T04:59:20;18.20;99.90
15241;DHT22;7723;52.170;9.978;2022-08-19T05:01:47;18.30;99.90
15241;DHT22;7723;52.170;9.978;2022-08-19T05:04:19;18.30;99.90
15241;DHT22;7723;52.170;9.978;2022-08-19T05:06:47;18.30;99.90
15241;DHT22;7723;52.170;9.978;2022-08-19T05:09:15;18.30;99.90
15241;DHT22;7723;52.170;9.978;2022-08-19T05:11:43;18.40;99.90
15241;DHT22;7723;52.170;9.978;2022-08-19T05:14:10;18.30;99.90
15241;DHT22;7723;52.170;9.978;2022-08-19T05:16:39;18.30;99.90
15241;DHT22;7723;52.170;9.978;2022-08-19T05:19:07;18.30;99.90
15241;DHT22;7723;52.170;9.978;2022-08-19T05:21:53;18.30;99.90
15241;DHT22;7723;52.170;9.978;2022-08-19T05:24:38;18.40;99.90
15241;DHT22;7723;52.170;9.978;2022-08-19T05:27:05;18.40;99.90
15241;DHT22;7723;52.170;9.978;2022-08-19T05:29:33;18.50;99.90
15241;DHT22;7723;52.170;9.978;2022-08-19T05:32:02;18.40;99.90
15241;DHT22;7723;52.170;9.978;2022-08-19T05:34:30;18.50;99.90
15241;DHT22;7723;52.170;9.978;2022-08-19T05:37:02;18.50;99.90
15241;DHT22;7723;52.170;9.978;2022-08-19T05:39:32;18.50;99.90
15241;DHT22;7723;52.170;9.978;2022-08-19T05:42:01;18.70;99.90
15241;DHT22;7723;52.170;9.978;2022-08-19T05:44:31;18.70;99.90
15241;DHT22;7723;52.170;9.978;2022-08-19T05:46:59;18.70;99.90
15241;DHT22;7723;52.170;9.978;2022-08-19T05:49:28;18.60;99.90
15241;DHT22;7723;52.170;9.978;2022-08-19T05:51:56;18.50;99.90
15241;DHT22;7723;52.170;9.978;2022-08-19T05:54:24;18.70;99.90
15241;DHT22;7723;52.170;9.978;2022-08-19T05:56:53;18.60;99.90
15241;DHT22;7723;52.170;9.978;2022-08-19T05:59:20;18.60;99.90
15241;DHT22;7723;52.170;9.978;2022-08-19T06:01:50;18.60;99.90
15241;DHT22;7723;52.170;9.978;2022-08-19T06:04:18;18.70;99.90
15241;DHT22;7723;52.170;9.978;2022-08-19T06:06:45;18.70;99.90
15241;DHT22;7723;52.170;9.978;2022-08-19T06:09:13;18.60;99.90
15241;DHT22;7723;52.170;9.978;2022-08-19T06:11:44;18.50;99.90
15241;DHT22;7723;52.170;9.978;2022-08-19T06:14:14;18.70;99.90
15241;DHT22;7723;52.170;9.978;2022-08-19T06:16:43;18.70;99.90
15241;DHT22;7723;52.170;9.978;2022-08-19T06:19:13;18.90;99.90
15241;DHT22;7723;52.170;9.978;2022-08-19T06:21:45;18.90;99.90
15241;DHT22;7723;52.170;9.978;2022-08-19T06:24:19;18.80;99.90
15241;DHT22;7723;52.170;9.978;2022-08-19T06:26:51;18.80;99.90
15241;DHT22;7723;52.170;9.978;2022-08-19T06:29:19;18.80;99.90
15241;DHT22;7723;52.170;9.978;2022-08-19T06:31:48;19.00;99.90
15241;DHT22;7723;52.170;9.978;2022-08-19T06:34:17;18.90;99.90
15241;DHT22;7723;52.170;9.978;2022-08-19T06:36:46;19.00;99.90
15241;DHT22;7723;52.170;9.978;2022-08-19T06:39:17;19.10;99.90
15241;DHT22;7723;52.170;9.978;2022-08-19T06:41:46;19.00;99.90
15241;DHT22;7723;52.170;9.978;2022-08-19T06:44:16;18.70;99.90
15241;DHT22;7723;52.170;9.978;2022-08-19T06:46:43;18.80;99.90
15241;DHT22;7723;52.170;9.978;2022-08-19T06:49:11;18.70;99.90
15241;DHT22;7723;52.170;9.978;2022-08-19T06:51:40;18.50;99.90
15241;DHT22;7723;52.170;9.978;2022-08-19T06:54:08;18.50;99.90
15241;DHT22;7723;52.170;9.978;2022-08-19T06:56:35;18.60;99.90
15241;DHT22;7723;52.170;9.978;2022-08-19T06:59:04;18.60;99.90
15241;DHT22;7723;52.170;9.978;2022-08-19T07:01:36;18.60;99.90
15241;DHT22;7723;52.170;9.978;2022-08-19T07:04:05;18.70;99.90
15241;DHT22;7723;52.170;9.978;2022-08-19T07:06:32;18.70;99.90
15241;DHT22;7723;52.170;9.978;2022-08-19T07:08:59;18.70;99.90
15241;DHT22;7723;52.170;9.978;2022-08-19T07:11:27;18.80;99.90
15241;DHT22;7723;52.170;9.978;2022-08-19T07:13:54;18.70;99.90
15241;DHT22;7723;52.170;9.978;2022-08-19T07:16:21;18.80;99.90
15241;DHT22;7723;52.170;9.978;2022-08-19T07:18:50;18.70;99.90
15241;DHT22;7723;52.170;9.978;2022-08-19T07:21:19;18.90;99.90
15241;DHT22;7723;52.170;9.978;2022-08-19T07:23:48;19.00;99.90
15241;DHT22;7723;52.170;9.978;2022-08-19T07:26:17;19.10;99.90
15241;DHT22;7723;52.170;9.978;2022-08-19T07:28:46;19.20;99.90
15241;DHT22;7723;52.170;9.978;2022-08-19T07:31:15;19.30;99.90
15241;DHT22;7723;52.170;9.978;2022-08-19T07:33:44;19.50;99.90
15241;DHT22;7723;52.170;9.978;2022-08-19T07:36:17;19.80;99.90
15241;DHT22;7723;52.170;9.978;2022-08-19T07:38:46;20.00;99.90
15241;DHT22;7723;52.170;9.978;2022-08-19T07:41:23;20.00;99.90
15241;DHT22;7723;52.170;9.978;2022-08-19T07:43:51;20.10;99.90
15241;DHT22;7723;52.170;9.978;2022-08-19T07:46:19;20.20;99.90
15241;DHT22;7723;52.170;9.978;2022-08-19T07:48:48;20.30;99.90
15241;DHT22;7723;52.170;9.978;2022-08-19T07:51:20;20.40;99.90
15241;DHT22;7723;52.170;9.978;2022-08-19T07:53:48;20.60;99.90
15241;DHT22;7723;52.170;9.978;2022-08-19T07:56:17;20.40;99.90
15241;DHT22;7723;52.170;9.978;2022-08-19T07:58:46;20.60;99.90
15241;DHT22;7723;52.170;9.978;2022-08-19T08:01:17;20.50;99.90
15241;DHT22;7723;52.170;9.978;2022-08-19T08:03:46;20.40;99.90
15241;DHT22;7723;52.170;9.978;2022-08-19T08:06:32;20.30;99.90
15241;DHT22;7723;52.170;9.978;2022-08-19T08:09:18;20.40;99.90
15241;DHT22;7723;52.170;9.978;2022-08-19T08:11:50;20.30;99.90
15241;DHT22;7723;52.170;9.978;2022-08-19T08:14:22;20.20;99.90
15241;DHT22;7723;52.170;9.978;2022-08-19T08:16:50;20.20;99.90
15241;DHT22;7723;52.170;9.978;2022-08-19T08:19:19;20.30;99.90
15241;DHT22;7723;52.170;9.978;2022-08-19T08:21:49;20.40;99.90
15241;DHT22;7723;52.170;9.978;2022-08-19T08:24:16;20.40;99.90
15241;DHT22;7723;52.170;9.978;2022-08-19T08:26:44;20.40;99.90
15241;DHT22;7723;52.170;9.978;2022-08-19T08:29:12;20.60;99.90
15241;DHT22;7723;52.170;9.978;2022-08-19T08:31:40;20.80;98.60
15241;DHT22;7723;52.170;9.978;2022-08-19T08:34:08;20.80;97.30
15241;DHT22;7723;52.170;9.978;2022-08-19T08:36:37;20.90;96.70
15241;DHT22;7723;52.170;9.978;2022-08-19T08:39:08;21.40;84.10
15241;DHT22;7723;52.170;9.978;2022-08-19T08:41:42;21.50;61.20
15241;DHT22;7723;52.170;9.978;2022-08-19T08:44:15;21.40;60.70
15241;DHT22;7723;52.170;9.978;2022-08-19T08:46:47;21.30;60.70
15241;DHT22;7723;52.170;9.978;2022-08-19T08:49:26;21.20;66.70
15241;DHT22;7723;52.170;9.978;2022-08-19T08:52:00;21.30;58.50
15241;DHT22;7723;52.170;9.978;2022-08-19T08:54:34;21.50;56.30
15241;DHT22;7723;52.170;9.978;2022-08-19T08:57:06;21.60;53.00
15241;DHT22;7723;52.170;9.978;2022-08-19T08:59:36;22.10;35.00
15241;DHT22;7723;52.170;9.978;2022-08-19T09:02:06;22.70;21.70
15241;DHT22;7723;52.170;9.978;2022-08-19T09:04:34;23.00;22.30
15241;DHT22;7723;52.170;9.978;2022-08-19T09:07:20;23.00;14.40
15241;DHT22;7723;52.170;9.978;2022-08-19T09:09:54;23.00;18.70
15241;DHT22;7723;52.170;9.978;2022-08-19T09:12:26;22.80;16.90
15241;DHT22;7723;52.170;9.978;2022-08-19T09:15:03;22.90;20.20
15241;DHT22;7723;52.170;9.978;2022-08-19T09:17:32;23.00;16.80
15241;DHT22;7723;52.170;9.978;2022-08-19T09:20:04;22.80;12.70
15241;DHT22;7723;52.170;9.978;2022-08-19T09:22:34;22.80;12.60
15241;DHT22;7723;52.170;9.978;2022-08-19T09:25:03;23.20;9.50
15241;DHT22;7723;52.170;9.978;2022-08-19T09:27:31;23.80;3.90
15241;DHT22;7723;52.170;9.978;2022-08-19T09:29:58;24.50;1.00
15241;DHT22;7723;52.170;9.978;2022-08-19T09:32:27;24.90;1.00
15241;DHT22;7723;52.170;9.978;2022-08-19T09:34:54;25.60;1.00
15241;DHT22;7723;52.170;9.978;2022-08-19T09:37:23;25.80;1.00
15241;DHT22;7723;52.170;9.978;2022-08-19T09:39:51;25.80;1.00
15241;DHT22;7723;52.170;9.978;2022-08-19T09:42:20;25.50;1.00
15241;DHT22;7723;52.170;9.978;2022-08-19T09:44:47;25.30;1.00
15241;DHT22;7723;52.170;9.978;2022-08-19T09:47:14;26.10;1.00
15241;DHT22;7723;52.170;9.978;2022-08-19T09:49:42;25.90;1.00
15241;DHT22;7723;52.170;9.978;2022-08-19T09:52:09;26.30;1.00
15241;DHT22;7723;52.170;9.978;2022-08-19T09:54:37;26.20;1.00
15241;DHT22;7723;52.170;9.978;2022-08-19T09:57:04;25.90;1.00
15241;DHT22;7723;52.170;9.978;2022-08-19T09:59:33;26.10;1.00
15241;DHT22;7723;52.170;9.978;2022-08-19T10:02:01;26.40;1.00
15241;DHT22;7723;52.170;9.978;2022-08-19T10:04:28;26.30;1.00
15241;DHT22;7723;52.170;9.978;2022-08-19T10:07:09;26.20;1.00
15241;DHT22;7723;52.170;9.978;2022-08-19T10:09:36;26.00;1.00
15241;DHT22;7723;52.170;9.978;2022-08-19T10:12:04;26.30;1.00
15241;DHT22;7723;52.170;9.978;2022-08-19T10:14:33;26.20;1.00
15241;DHT22;7723;52.170;9.978;2022-08-19T10:17:01;26.30;1.00
15241;DHT22;7723;52.170;9.978;2022-08-19T10:19:29;26.10;1.00
15241;DHT22;7723;52.170;9.978;2022-08-19T10:22:03;25.60;1.00
15241;DHT22;7723;52.170;9.978;2022-08-19T10:24:31;25.60;1.00
15241;DHT22;7723;52.170;9.978;2022-08-19T10:26:59;25.40;1.00
15241;DHT22;7723;52.170;9.978;2022-08-19T10:29:29;25.70;1.00
15241;DHT22;7723;52.170;9.978;2022-08-19T10:31:58;25.80;1.00
15241;DHT22;7723;52.170;9.978;2022-08-19T10:34:27;25.80;1.00
15241;DHT22;7723;52.170;9.978;2022-08-19T10:36:54;26.00;1.00
15241;DHT22;7723;52.170;9.978;2022-08-19T10:39:22;25.70;1.00
15241;DHT22;7723;52.170;9.978;2022-08-19T10:41:49;25.30;1.00
15241;DHT22;7723;52.170;9.978;2022-08-19T10:44:16;25.20;1.00
15241;DHT22;7723;52.170;9.978;2022-08-19T10:46:43;25.10;1.00
15241;DHT22;7723;52.170;9.978;2022-08-19T10:49:14;25.10;1.00
15241;DHT22;7723;52.170;9.978;2022-08-19T10:51:41;25.00;1.00
15241;DHT22;7723;52.170;9.978;2022-08-19T10:54:26;24.80;1.00
15241;DHT22;7723;52.170;9.978;2022-08-19T10:57:14;25.00;1.00
15241;DHT22;7723;52.170;9.978;2022-08-19T10:59:40;25.20;1.00
15241;DHT22;7723;52.170;9.978;2022-08-19T11:02:09;25.00;1.00
15241;DHT22;7723;52.170;9.978;2022-08-19T11:04:40;24.90;1.00
15241;DHT22;7723;52.170;9.978;2022-08-19T11:07:07;24.60;1.00
15241;DHT22;7723;52.170;9.978;2022-08-19T11:09:39;24.40;1.00
15241;DHT22;7723;52.170;9.978;2022-08-19T11:12:07;24.40;1.00
15241;DHT22;7723;52.170;9.978;2022-08-19T11:14:35;24.60;1.00
15241;DHT22;7723;52.170;9.978;2022-08-19T11:17:03;24.80;1.00
15241;DHT22;7723;52.170;9.978;2022-08-19T11:19:31;24.90;1.00
15241;DHT22;7723;52.170;9.978;2022-08-19T11:22:00;24.90;1.00
15241;DHT22;7723;52.170;9.978;2022-08-19T11:24:29;25.00;1.00
15241;DHT22;7723;52.170;9.978;2022-08-19T11:27:01;25.20;1.00
15241;DHT22;7723;52.170;9.978;2022-08-19T11:29:30;25.20;1.00
15241;DHT22;7723;52.170;9.978;2022-08-19T11:31:58;24.90;1.00
15241;DHT22;7723;52.170;9.978;2022-08-19T11:34:27;24.90;1.00
15241;DHT22;7723;52.170;9.978;2022-08-19T11:36:55;25.00;1.00
15241;DHT22;7723;52.170;9.978;2022-08-19T11:39:26;25.10;1.00
15241;DHT22;7723;52.170;9.978;2022-08-19T11:41:56;25.30;1.00
15241;DHT22;7723;52.170;9.978;2022-08-19T11:44:24;25.20;1.00
15241;DHT22;7723;52.170;9.978;2022-08-19T11:46:52;25.10;1.00
15241;DHT22;7723;52.170;9.978;2022-08-19T11:49:20;25.30;1.00
15241;DHT22;7723;52.170;9.978;2022-08-19T11:51:48;25.50;1.00
15241;DHT22;7723;52.170;9.978;2022-08-19T11:54:16;25.30;1.00
15241;DHT22;7723;52.170;9.978;2022-08-19T11:56:45;25.10;1.00
15241;DHT22;7723;52.170;9.978;2022-08-19T11:59:14;25.20;1.00
15241;DHT22;7723;52.170;9.978;2022-08-19T12:01:42;25.20;1.00
15241;DHT22;7723;52.170;9.978;2022-08-19T12:04:09;25.10;1.00
15241;DHT22;7723;52.170;9.978;2022-08-19T12:06:39;25.40;1.00
15241;DHT22;7723;52.170;9.978;2022-08-19T12:09:07;25.50;1.00
15241;DHT22;7723;52.170;9.978;2022-08-19T12:11:36;25.40;1.00
15241;DHT22;7723;52.170;9.978;2022-08-19T12:14:06;25.30;1.00
15241;DHT22;7723;52.170;9.978;2022-08-19T12:16:33;25.20;1.00
15241;DHT22;7723;52.170;9.978;2022-08-19T12:19:03;25.40;1.00
15241;DHT22;7723;52.170;9.978;2022-08-19T12:21:32;25.10;1.00
15241;DHT22;7723;52.170;9.978;2022-08-19T12:24:01;25.00;1.00
15241;DHT22;7723;52.170;9.978;2022-08-19T12:26:29;25.00;1.00
15241;DHT22;7723;52.170;9.978;2022-08-19T12:28:58;25.10;1.00
15241;DHT22;7723;52.170;9.978;2022-08-19T12:31:27;25.10;1.00
15241;DHT22;7723;52.170;9.978;2022-08-19T12:33:55;25.10;1.00
15241;DHT22;7723;52.170;9.978;2022-08-19T12:36:23;25.20;1.00
15241;DHT22;7723;52.170;9.978;2022-08-19T12:38:51;25.20;1.00
15241;DHT22;7723;52.170;9.978;2022-08-19T12:41:19;25.40;1.00
15241;DHT22;7723;52.170;9.978;2022-08-19T12:43:48;25.60;1.00
15241;DHT22;7723;52.170;9.978;2022-08-19T12:46:16;25.50;1.00
15241;DHT22;7723;52.170;9.978;2022-08-19T12:48:45;25.50;1.00
15241;DHT22;7723;52.170;9.978;2022-08-19T12:51:16;25.40;1.00
15241;DHT22;7723;52.170;9.978;2022-08-19T12:53:45;25.50;1.00
15241;DHT22;7723;52.170;9.978;2022-08-19T12:56:13;25.40;1.00
15241;DHT22;7723;52.170;9.978;2022-08-19T12:58:41;25.30;1.00
15241;DHT22;7723;52.170;9.978;2022-08-19T13:01:11;25.40;1.00
15241;DHT22;7723;52.170;9.978;2022-08-19T13:03:38;25.50;1.00
15241;DHT22;7723;52.170;9.978;2022-08-19T13:06:08;25.60;1.00
15241;DHT22;7723;52.170;9.978;2022-08-19T13:08:39;25.70;1.00
15241;DHT22;7723;52.170;9.978;2022-08-19T13:11:10;25.50;1.00
15241;DHT22;7723;52.170;9.978;2022-08-19T13:13:38;25.70;1.00
15241;DHT22;7723;52.170;9.978;2022-08-19T13:16:07;25.80;1.00
15241;DHT22;7723;52.170;9.978;2022-08-19T13:18:35;25.80;1.00
15241;DHT22;7723;52.170;9.978;2022-08-19T13:21:04;25.70;1.00
15241;DHT22;7723;52.170;9.978;2022-08-19T13:23:34;25.60;1.00
15241;DHT22;7723;52.170;9.978;2022-08-19T13:26:04;25.60;1.00
15241;DHT22;7723;52.170;9.978;2022-08-19T13:28:36;25.60;1.00
15241;DHT22;7723;52.170;9.978;2022-08-19T13:31:22;25.80;1.00
15241;DHT22;7723;52.170;9.978;2022-08-19T13:34:08;25.90;1.00
15241;DHT22;7723;52.170;9.978;2022-08-19T13:36:37;26.00;1.00
15241;DHT22;7723;52.170;9.978;2022-08-19T13:39:06;25.80;1.00
15241;DHT22;7723;52.170;9.978;2022-08-19T13:41:35;25.90;1.00
15241;DHT22;7723;52.170;9.978;2022-08-19T13:44:02;25.90;1.00
15241;DHT22;7723;52.170;9.978;2022-08-19T13:46:29;25.80;1.00
15241;DHT22;7723;52.170;9.978;2022-08-19T13:48:57;25.80;1.00
15241;DHT22;7723;52.170;9.978;2022-08-19T13:51:24;25.60;1.00
15241;DHT22;7723;52.170;9.978;2022-08-19T13:53:51;25.60;1.00
15241;DHT22;7723;52.170;9.978;2022-08-19T13:56:20;25.80;1.00
15241;DHT22;7723;52.170;9.978;2022-08-19T13:58:47;25.90;1.00
15241;DHT22;7723;52.170;9.978;2022-08-19T14:01:20;26.00;1.00
15241;DHT22;7723;52.170;9.978;2022-08-19T14:03:47;25.90;1.00
15241;DHT22;7723;52.170;9.978;2022-08-19T14:06:14;25.90;1.00
15241;DHT22;7723;52.170;9.978;2022-08-19T14:08:42;25.90;1.00
15241;DHT22;7723;52.170;9.978;2022-08-19T14:11:10;25.80;1.00
15241;DHT22;7723;52.170;9.978;2022-08-19T14:13:38;25.60;1.00
15241;DHT22;7723;52.170;9.978;2022-08-19T14:16:07;25.50;1.00
15241;DHT22;7723;52.170;9.978;2022-08-19T14:18:35;25.70;1.00
15241;DHT22;7723;52.170;9.978;2022-08-19T14:21:03;25.80;1.00
15241;DHT22;7723;52.170;9.978;2022-08-19T14:23:31;25.80;1.00
15241;DHT22;7723;52.170;9.978;2022-08-19T14:26:05;25.90;1.00
15241;DHT22;7723;52.170;9.978;2022-08-19T14:28:32;25.90;1.00
15241;DHT22;7723;52.170;9.978;2022-08-19T14:31:01;25.90;1.00
15241;DHT22;7723;52.170;9.978;2022-08-19T14:33:28;25.80;1.00
15241;DHT22;7723;52.170;9.978;2022-08-19T14:35:55;25.70;1.00
15241;DHT22;7723;52.170;9.978;2022-08-19T14:38:22;25.70;1.00
15241;DHT22;7723;52.170;9.978;2022-08-19T14:40:49;25.80;1.00
15241;DHT22;7723;52.170;9.978;2022-08-19T14:43:17;25.90;1.00
15241;DHT22;7723;52.170;9.978;2022-08-19T14:45:45;25.90;1.00
15241;DHT22;7723;52.170;9.978;2022-08-19T14:48:13;25.90;1.00
15241;DHT22;7723;52.170;9.978;2022-08-19T14:50:40;25.90;1.00
15241;DHT22;7723;52.170;9.978;2022-08-19T14:53:08;26.00;1.00
15241;DHT22;7723;52.170;9.978;2022-08-19T14:55:35;26.10;1.00
15241;DHT22;7723;52.170;9.978;2022-08-19T14:58:02;26.20;1.00
15241;DHT22;7723;52.170;9.978;2022-08-19T15:00:29;26.30;1.00
15241;DHT22;7723;52.170;9.978;2022-08-19T15:02:56;26.30;1.00
15241;DHT22;7723;52.170;9.978;2022-08-19T15:05:25;26.40;1.00
15241;DHT22;7723;52.170;9.978;2022-08-19T15:07:53;26.20;1.00
15241;DHT22;7723;52.170;9.978;2022-08-19T15:10:22;26.20;1.00
15241;DHT22;7723;52.170;9.978;2022-08-19T15:12:50;26.10;1.00
15241;DHT22;7723;52.170;9.978;2022-08-19T15:15:18;26.00;1.00
15241;DHT22;7723;52.170;9.978;2022-08-19T15:17:47;26.10;1.00
15241;DHT22;7723;52.170;9.978;2022-08-19T15:20:19;26.20;1.00
15241;DHT22;7723;52.170;9.978;2022-08-19T15:22:48;26.20;1.00
15241;DHT22;7723;52.170;9.978;2022-08-19T15:25:17;26.20;1.00
15241;DHT22;7723;52.170;9.978;2022-08-19T15:27:45;26.20;1.00
15241;DHT22;7723;52.170;9.978;2022-08-19T15:30:18;26.20;1.00
15241;DHT22;7723;52.170;9.978;2022-08-19T15:32:46;26.20;1.00
15241;DHT22;7723;52.170;9.978;2022-08-19T15:35:13;26.30;1.00
15241;DHT22;7723;52.170;9.978;2022-08-19T15:37:40;26.30;1.00
15241;DHT22;7723;52.170;9.978;2022-08-19T15:40:10;26.30;1.00
15241;DHT22;7723;52.170;9.978;2022-08-19T15:42:38;26.40;1.00
15241;DHT22;7723;52.170;9.978;2022-08-19T15:45:08;26.30;1.00
15241;DHT22;7723;52.170;9.978;2022-08-19T15:47:36;26.30;1.00
15241;DHT22;7723;52.170;9.978;2022-08-19T15:50:05;26.20;1.00
15241;DHT22;7723;52.170;9.978;2022-08-19T15:52:33;26.10;1.00
15241;DHT22;7723;52.170;9.978;2022-08-19T15:55:00;26.20;1.00
15241;DHT22;7723;52.170;9.978;2022-08-19T15:57:29;26.20;1.00
15241;DHT22;7723;52.170;9.978;2022-08-19T16:00:25;26.10;1.00
15241;DHT22;7723;52.170;9.978;2022-08-19T16:03:18;26.00;1.00
15241;DHT22;7723;52.170;9.978;2022-08-19T16:06:03;26.10;1.00